Accueil
METAR-TAF:

METAR-TAF

Aéroports :

Aéroport de Varna

Varna, Bulgarie

latitude: 43-12N, longitude: 027-55E, altitude: 41 m

Observation

Le bulletin a été fait il y a 58 minutes, à 17:30 UTC
Vent 5 kt de sud-est
Température 29°C
Humidité 48%
Pression 1011 hPa
Visibilité 10 km ou plus

METAR: LBWN 131730Z AUTO 13005KT 9999 NCD 29/17 Q1011 NOSIG

Heure: 21:28 (18:28 UTC)

Prévision

Le bulletin a été fait il y a 1 heure et 28 minutes, à 17:00 UTC
Prévision valable du 13 à 18 UTC au 14 à 18 UTC
Vent 4 kt de direction variable
Visibilité 10 km ou plus
pas de nuages en-dessous de 1500 mètres et pas de cumulonimbus.
Evoluant progressivement
du 14 à 07 UTC au 14 à 09 UTC
Vent 10 kt de est/nord-est

TAF: LBWN 131700Z 1318/1418 VRB04KT CAVOK BECMG 1407/1409 06010KT

Observations et prévisions météorologiques de plus de 4000 aéroports (messages METAR et TAF).

Les stations disponibles sont représentées par des disques jaunes et rouges sur la carte.

Passer la souris dessus pour voir le nom de la station.

Cliquer dessus pour voir les observations et prévisions météorologiques.

Pour changer de carte: cliquez sur les boutons verts avec une croix noire pour zoomer, sur le bouton vert avec un tiret pour effectuer un zoom arrière, ou sur les flèches vertes pour les cartes adjacentes.


METAR-TAF: